createdAt,value
2023-02-13T00:00:32.497Z,-3.65
2023-02-13T00:02:59.569Z,-3.68
2023-02-13T00:05:26.560Z,-3.62
2023-02-13T00:07:53.508Z,-3.61
2023-02-13T00:10:20.671Z,-3.74
2023-02-13T00:12:47.720Z,-3.80
2023-02-13T00:15:14.676Z,-3.79
2023-02-13T00:17:41.649Z,-3.80
2023-02-13T00:20:10.646Z,-3.70
2023-02-13T00:22:38.247Z,-3.74
2023-02-13T00:25:06.437Z,-3.75
2023-02-13T00:27:33.837Z,-3.81
2023-02-13T00:30:00.835Z,-3.87
2023-02-13T00:32:27.750Z,-3.95
2023-02-13T00:34:56.624Z,-3.97
2023-02-13T00:37:23.868Z,-3.98
2023-02-13T00:39:52.840Z,-3.96
2023-02-13T00:42:24.089Z,-3.90
2023-02-13T00:44:51.294Z,-3.72
2023-02-13T00:47:18.731Z,-3.60
2023-02-13T00:49:45.944Z,-3.56
2023-02-13T00:52:13.217Z,-3.48
2023-02-13T00:54:40.134Z,-3.41
2023-02-13T00:57:07.056Z,-3.35
2023-02-13T00:59:35.150Z,-3.37
2023-02-13T01:02:02.148Z,-3.38
2023-02-13T01:04:29.151Z,-3.51
2023-02-13T01:06:57.497Z,-3.64
2023-02-13T01:09:25.523Z,-3.68
2023-02-13T01:11:52.787Z,-3.70
2023-02-13T01:14:20.143Z,-3.66
2023-02-13T01:16:49.268Z,-3.82
2023-02-13T01:19:16.197Z,-3.94
2023-02-13T01:21:44.402Z,-4.17
2023-02-13T01:24:11.712Z,-4.22
2023-02-13T01:26:38.763Z,-4.14
2023-02-13T01:29:05.976Z,-4.13
2023-02-13T01:31:33.117Z,-4.14
2023-02-13T01:34:00.441Z,-4.21
2023-02-13T01:36:27.710Z,-4.31
2023-02-13T01:38:57.602Z,-4.33
2023-02-13T01:41:25.932Z,-4.33
2023-02-13T01:43:59.161Z,-4.29
2023-02-13T01:46:36.026Z,-4.29
2023-02-13T01:49:25.814Z,-4.28
2023-02-13T01:51:56.588Z,-4.39
2023-02-13T01:54:33.227Z,-4.48
2023-02-13T01:57:15.113Z,-4.45
2023-02-13T01:59:49.792Z,-4.55
2023-02-13T02:02:18.527Z,-4.53
2023-02-13T02:04:48.368Z,-4.53
2023-02-13T02:07:22.918Z,-4.57
2023-02-13T02:09:54.425Z,-4.57
2023-02-13T02:12:29.098Z,-4.68
2023-02-13T02:14:58.072Z,-4.81
2023-02-13T02:17:26.787Z,-4.94
2023-02-13T02:20:15.471Z,-4.95
2023-02-13T02:22:51.609Z,-5.00
2023-02-13T02:25:46.503Z,-5.00
2023-02-13T02:28:52.650Z,-5.02
2023-02-13T02:31:37.864Z,-5.09
2023-02-13T02:34:10.556Z,-5.15
2023-02-13T02:36:53.437Z,-5.19
2023-02-13T02:39:43.480Z,-5.42
2023-02-13T02:42:23.845Z,-5.34
2023-02-13T02:44:53.869Z,-5.36
2023-02-13T02:48:11.149Z,-5.28
2023-02-13T02:50:43.884Z,-5.42
2023-02-13T02:53:31.821Z,-5.30
2023-02-13T02:56:06.285Z,-5.17
2023-02-13T02:59:00.862Z,-5.12
2023-02-13T03:01:51.278Z,-5.16
2023-02-13T03:04:49.525Z,-5.30
2023-02-13T03:07:18.762Z,-5.45
2023-02-13T03:10:13.937Z,-5.56
2023-02-13T03:13:17.682Z,-6.06
2023-02-13T03:16:04.855Z,-5.94
2023-02-13T03:18:54.953Z,-5.83
2023-02-13T03:21:53.981Z,-6.25
2023-02-13T03:24:27.412Z,-6.55
2023-02-13T03:27:54.479Z,-6.20
2023-02-13T03:30:37.162Z,-6.18
2023-02-13T03:33:19.412Z,-6.08
2023-02-13T03:36:25.743Z,-6.11
2023-02-13T03:39:09.967Z,-6.14
2023-02-13T03:41:48.918Z,-6.21
2023-02-13T03:44:23.762Z,-5.95
2023-02-13T03:46:53.646Z,-6.03
2023-02-13T03:49:44.957Z,-5.99
2023-02-13T03:52:51.184Z,-5.78
2023-02-13T03:55:44.429Z,-5.96
2023-02-13T03:58:32.546Z,-6.45
2023-02-13T04:01:05.139Z,-6.58
2023-02-13T04:03:53.264Z,-6.87
2023-02-13T04:06:51.965Z,-6.89
2023-02-13T04:09:19.310Z,-6.86
2023-02-13T04:11:46.219Z,-6.85
2023-02-13T04:14:24.104Z,-6.70
2023-02-13T04:16:58.232Z,-6.69
2023-02-13T04:19:26.906Z,-6.62
2023-02-13T04:21:59.085Z,-6.54
2023-02-13T04:24:27.353Z,-6.54
2023-02-13T04:26:55.067Z,-6.50
2023-02-13T04:29:23.557Z,-6.50
2023-02-13T04:31:51.023Z,-6.53
2023-02-13T04:34:18.092Z,-6.62
2023-02-13T04:36:45.083Z,-6.58
2023-02-13T04:39:12.423Z,-6.60
2023-02-13T04:41:39.325Z,-6.61
2023-02-13T04:44:06.336Z,-6.62
2023-02-13T04:46:33.374Z,-6.69
2023-02-13T04:49:00.429Z,-6.72
2023-02-13T04:51:27.672Z,-6.67
2023-02-13T04:53:54.811Z,-6.50
2023-02-13T04:56:21.789Z,-6.47
2023-02-13T04:58:48.801Z,-6.61
2023-02-13T05:01:17.295Z,-6.77
2023-02-13T05:03:44.354Z,-6.75
2023-02-13T05:06:11.329Z,-6.81
2023-02-13T05:08:38.726Z,-6.83
2023-02-13T05:11:06.329Z,-6.65
2023-02-13T05:13:34.111Z,-6.53
2023-02-13T05:16:01.091Z,-6.46
2023-02-13T05:18:28.003Z,-6.47
2023-02-13T05:21:14.028Z,-6.55
2023-02-13T05:23:41.042Z,-6.59
2023-02-13T05:26:07.933Z,-6.58
2023-02-13T05:28:53.336Z,-6.50
2023-02-13T05:31:20.251Z,-6.29
2023-02-13T05:33:47.263Z,-6.09
2023-02-13T05:36:14.198Z,-6.04
2023-02-13T05:38:41.452Z,-6.15
2023-02-13T05:41:08.492Z,-6.23
2023-02-13T05:43:35.429Z,-6.36
2023-02-13T05:46:07.015Z,-6.41
2023-02-13T05:48:34.487Z,-6.41
2023-02-13T05:51:01.557Z,-6.25
2023-02-13T05:53:29.945Z,-5.99
2023-02-13T05:55:57.117Z,-5.71
2023-02-13T05:58:24.189Z,-5.55
2023-02-13T06:00:51.107Z,-5.35
2023-02-13T06:03:17.955Z,-5.17
2023-02-13T06:05:44.926Z,-4.92
2023-02-13T06:08:11.824Z,-4.70
2023-02-13T06:10:38.811Z,-4.48
2023-02-13T06:13:05.688Z,-4.28
2023-02-13T06:15:32.545Z,-4.14
2023-02-13T06:17:59.904Z,-4.10
2023-02-13T06:20:27.265Z,-3.97
2023-02-13T06:22:54.198Z,-3.85
2023-02-13T06:25:21.660Z,-3.72
2023-02-13T06:27:48.589Z,-3.49
2023-02-13T06:30:16.779Z,-3.31
2023-02-13T06:32:44.335Z,-3.21
2023-02-13T06:35:11.288Z,-3.03
2023-02-13T06:37:39.346Z,-2.93
2023-02-13T06:40:07.927Z,-2.86
2023-02-13T06:42:34.879Z,-2.61
2023-02-13T06:45:01.748Z,-2.49
2023-02-13T06:47:28.623Z,-2.49
2023-02-13T06:49:55.519Z,-2.51
2023-02-13T06:52:22.469Z,-2.30
2023-02-13T06:54:49.421Z,-2.30
2023-02-13T06:57:16.669Z,-2.20
2023-02-13T06:59:43.900Z,-1.91
2023-02-13T07:02:14.180Z,-1.74
2023-02-13T07:04:41.504Z,-1.66
2023-02-13T07:07:08.512Z,-1.67
2023-02-13T07:09:35.695Z,-1.60
2023-02-13T07:12:04.762Z,-1.39
2023-02-13T07:14:31.735Z,-1.11
2023-02-13T07:16:58.864Z,-1.17
2023-02-13T07:19:25.843Z,-1.13
2023-02-13T07:21:52.758Z,-1.24
2023-02-13T07:24:19.668Z,-1.11
2023-02-13T07:26:46.579Z,-0.99
2023-02-13T07:29:13.583Z,-0.86
2023-02-13T07:31:40.554Z,-0.76
2023-02-13T07:34:08.011Z,-0.66
2023-02-13T07:36:35.234Z,-0.99
2023-02-13T07:39:02.298Z,-0.92
2023-02-13T07:41:29.399Z,-0.98
2023-02-13T07:43:56.380Z,-0.94
2023-02-13T07:46:23.498Z,-0.70
2023-02-13T07:48:52.523Z,-0.58
2023-02-13T07:51:19.475Z,-0.60
2023-02-13T07:53:46.758Z,-0.53
2023-02-13T07:56:13.728Z,-0.50
2023-02-13T07:58:41.205Z,-0.27
2023-02-13T08:01:10.317Z,0.02
2023-02-13T08:03:37.593Z,0.30
2023-02-13T08:06:05.751Z,0.10
2023-02-13T08:08:32.716Z,0.02
2023-02-13T08:11:27.136Z,-0.02
2023-02-13T08:13:54.011Z,0.24
2023-02-13T08:16:21.019Z,0.55
2023-02-13T08:18:47.915Z,0.82
2023-02-13T08:21:15.485Z,0.49
2023-02-13T08:23:42.437Z,0.52
2023-02-13T08:26:11.272Z,0.57
2023-02-13T08:28:38.567Z,1.00
2023-02-13T08:31:13.056Z,1.06
2023-02-13T08:33:41.601Z,1.19
2023-02-13T08:36:08.996Z,0.82
2023-02-13T08:38:35.951Z,0.99
2023-02-13T08:41:02.846Z,1.03
2023-02-13T08:43:29.759Z,1.19
2023-02-13T08:46:01.101Z,1.22
2023-02-13T08:48:29.739Z,1.28
2023-02-13T08:50:56.806Z,0.95
2023-02-13T08:53:23.824Z,1.01
2023-02-13T08:55:55.220Z,1.22
2023-02-13T08:58:22.650Z,1.33
2023-02-13T09:00:50.239Z,1.41
2023-02-13T09:03:17.229Z,1.41
2023-02-13T09:05:44.180Z,1.29
2023-02-13T09:08:14.020Z,1.62
2023-02-13T09:10:43.904Z,1.35
2023-02-13T09:13:11.147Z,1.76
2023-02-13T09:15:41.686Z,1.84
2023-02-13T09:18:08.626Z,1.65
2023-02-13T09:20:36.254Z,1.54
2023-02-13T09:23:03.613Z,1.73
2023-02-13T09:25:30.524Z,2.33
2023-02-13T09:27:57.464Z,2.75
2023-02-13T09:30:24.648Z,3.18
2023-02-13T09:32:55.309Z,3.09
2023-02-13T09:35:23.699Z,3.75
2023-02-13T09:37:50.567Z,3.28
2023-02-13T09:40:43.223Z,3.33
2023-02-13T09:43:30.603Z,3.60
2023-02-13T10:17:37.023Z,3.87
2023-02-13T10:20:08.789Z,4.01
2023-02-13T10:22:41.550Z,3.98
2023-02-13T10:25:40.637Z,4.47
2023-02-13T10:28:15.688Z,4.29
2023-02-13T10:31:05.454Z,4.32
2023-02-13T10:33:36.376Z,4.16
2023-02-13T10:36:24.457Z,3.94
2023-02-13T10:39:00.329Z,4.27
2023-02-13T10:41:48.791Z,4.53
2023-02-13T10:44:56.033Z,4.42
2023-02-13T10:47:25.829Z,4.30
2023-02-13T10:50:11.662Z,4.40
2023-02-13T10:53:00.325Z,4.55
2023-02-13T10:55:46.039Z,4.31
2023-02-13T10:58:19.257Z,4.03
2023-02-13T11:01:07.098Z,4.22
2023-02-13T11:03:34.044Z,4.13
2023-02-13T11:06:07.835Z,4.15
2023-02-13T11:08:44.655Z,4.45
2023-02-13T11:11:36.272Z,4.38
2023-02-13T11:14:14.105Z,4.28
2023-02-13T11:16:48.852Z,4.12
2023-02-13T11:19:22.533Z,3.98
2023-02-13T11:21:54.695Z,4.06
2023-02-13T11:24:27.386Z,4.13
2023-02-13T11:27:05.982Z,4.36
2023-02-13T11:29:34.888Z,4.38
2023-02-13T11:32:29.719Z,4.16
2023-02-13T11:34:57.275Z,4.02
2023-02-13T11:37:29.821Z,4.05
2023-02-13T11:39:59.989Z,4.08
2023-02-13T11:42:36.434Z,4.09
2023-02-13T11:45:23.093Z,4.13
2023-02-13T11:47:50.503Z,3.87
2023-02-13T11:50:23.242Z,3.68
2023-02-13T11:53:04.499Z,3.88
2023-02-13T11:55:39.463Z,3.96
2023-02-13T11:58:12.111Z,4.00
2023-02-13T12:00:41.538Z,4.12
2023-02-13T12:03:29.030Z,4.18
2023-02-13T12:06:16.219Z,4.20
2023-02-13T12:08:47.037Z,4.46
2023-02-13T12:11:44.117Z,4.50
2023-02-13T12:14:18.684Z,4.64
2023-02-13T12:16:55.302Z,4.32
2023-02-13T12:19:25.221Z,4.10
2023-02-13T12:22:28.093Z,4.40
2023-02-13T12:25:04.983Z,4.44
2023-02-13T12:27:42.837Z,4.57
2023-02-13T12:30:12.911Z,4.47
2023-02-13T12:33:16.583Z,4.57
2023-02-13T12:36:01.791Z,4.68
2023-02-13T12:38:48.750Z,4.85
2023-02-13T12:41:25.326Z,5.17
2023-02-13T12:44:23.813Z,4.77
2023-02-13T12:47:15.079Z,4.69
2023-02-13T12:49:59.048Z,4.89
2023-02-13T12:52:45.145Z,5.05
2023-02-13T12:55:18.154Z,5.06
2023-02-13T12:57:57.029Z,4.94
2023-02-13T13:00:45.885Z,4.71
2023-02-13T13:03:51.521Z,4.84
2023-02-13T13:06:33.232Z,4.80
2023-02-13T13:09:10.819Z,4.90
2023-02-13T13:12:02.375Z,4.73
2023-02-13T13:14:38.829Z,4.81
2023-02-13T13:17:09.370Z,5.09
2023-02-13T13:19:52.709Z,5.26
2023-02-13T13:22:30.692Z,5.34
2023-02-13T13:25:03.463Z,5.27
2023-02-13T13:27:38.295Z,5.19
2023-02-13T13:30:14.784Z,5.20
2023-02-13T13:32:44.254Z,5.26
2023-02-13T13:35:20.041Z,5.58
2023-02-13T13:38:25.546Z,5.36
2023-02-13T13:41:07.212Z,5.24
2023-02-13T13:43:57.843Z,5.38
2023-02-13T13:46:43.796Z,5.49
2023-02-13T13:49:16.690Z,5.48
2023-02-13T13:51:43.754Z,5.61
2023-02-13T13:54:10.559Z,5.77
2023-02-13T13:57:02.298Z,5.40
2023-02-13T13:59:38.304Z,5.66
2023-02-13T14:02:17.600Z,5.76
2023-02-13T14:05:10.622Z,5.90
2023-02-13T14:07:43.858Z,5.52
2023-02-13T14:10:26.323Z,5.11
2023-02-13T14:12:56.808Z,5.32
2023-02-13T14:15:39.061Z,5.29
2023-02-13T14:18:14.955Z,5.49
2023-02-13T14:20:43.107Z,5.65
2023-02-13T14:23:34.290Z,5.68
2023-02-13T14:26:16.578Z,5.30
2023-02-13T14:28:49.239Z,5.20
2023-02-13T14:31:22.489Z,5.46
2023-02-13T14:34:02.894Z,5.17
2023-02-13T14:36:42.379Z,5.50
2023-02-13T14:39:42.355Z,5.20
2023-02-13T14:42:30.032Z,5.07
2023-02-13T14:45:00.743Z,5.28
2023-02-13T14:47:57.829Z,5.41
2023-02-13T14:50:30.548Z,5.15
2023-02-13T14:53:03.518Z,5.02
2023-02-13T14:55:46.726Z,4.81
2023-02-13T14:58:25.228Z,4.80
2023-02-13T15:01:06.147Z,4.95
2023-02-13T15:03:49.916Z,4.43
2023-02-13T15:06:27.877Z,4.51
2023-02-13T15:08:58.175Z,4.60
2023-02-13T15:11:36.201Z,4.42
2023-02-13T15:14:25.782Z,4.02
2023-02-13T15:16:57.865Z,4.29
2023-02-13T15:19:26.161Z,4.09
2023-02-13T15:21:57.166Z,3.93
2023-02-13T15:24:25.247Z,3.70
2023-02-13T15:27:04.230Z,3.74
2023-02-13T15:29:47.575Z,3.93
2023-02-13T15:32:29.400Z,3.84
2023-02-13T15:34:56.597Z,3.65
2023-02-13T15:37:27.641Z,3.45
2023-02-13T15:39:54.797Z,3.40
2023-02-13T15:42:22.035Z,3.36
2023-02-13T15:44:53.275Z,3.14
2023-02-13T15:47:30.746Z,2.55
2023-02-13T15:49:57.882Z,2.64
2023-02-13T15:52:34.437Z,2.99
2023-02-13T15:55:01.239Z,3.12
2023-02-13T15:57:28.925Z,2.88
2023-02-13T15:59:57.771Z,2.14
2023-02-13T16:02:34.098Z,2.29
2023-02-13T16:05:02.282Z,1.80
2023-02-13T16:07:30.780Z,2.04
2023-02-13T16:10:33.056Z,2.43
2023-02-13T16:13:16.892Z,2.00
2023-02-13T16:15:44.131Z,1.52
2023-02-13T16:18:20.094Z,1.35
2023-02-13T16:20:53.382Z,1.80
2023-02-13T16:23:21.222Z,1.65
2023-02-13T16:25:48.964Z,1.95
2023-02-13T16:28:25.773Z,1.49
2023-02-13T16:30:59.539Z,1.79
2023-02-13T16:33:43.546Z,1.85
2023-02-13T16:36:10.487Z,2.10
2023-02-13T16:38:41.472Z,2.20
2023-02-13T16:41:22.100Z,1.38
2023-02-13T16:43:53.087Z,1.21
2023-02-13T16:46:24.934Z,0.63
2023-02-13T16:48:58.311Z,0.67
2023-02-13T16:51:39.174Z,1.08
2023-02-13T16:54:15.736Z,0.71
2023-02-13T16:56:51.669Z,0.71
2023-02-13T16:59:21.483Z,0.79
2023-02-13T17:01:49.074Z,1.01
2023-02-13T17:04:25.693Z,1.05
2023-02-13T17:06:56.204Z,0.65
2023-02-13T17:09:24.124Z,0.26
2023-02-13T17:11:53.428Z,0.13
2023-02-13T17:14:20.608Z,0.12
2023-02-13T17:16:48.838Z,0.18
2023-02-13T17:19:15.834Z,0.21
2023-02-13T17:21:42.795Z,0.08
2023-02-13T17:24:16.796Z,-0.15
2023-02-13T17:26:44.080Z,-0.09
2023-02-13T17:29:10.967Z,-0.17
2023-02-13T17:31:38.061Z,0.13
2023-02-13T17:34:05.920Z,0.38
2023-02-13T17:36:32.829Z,0.13
2023-02-13T17:38:59.767Z,0.01
2023-02-13T17:41:26.727Z,-0.23
2023-02-13T17:43:53.620Z,-0.43
2023-02-13T17:46:20.716Z,0.08
2023-02-13T17:48:47.581Z,1.12
2023-02-13T17:51:14.973Z,1.91
2023-02-13T17:53:41.959Z,2.15
2023-02-13T17:56:08.871Z,2.35
2023-02-13T17:58:35.772Z,2.37
2023-02-13T18:01:03.487Z,2.39
2023-02-13T18:03:30.627Z,2.17
2023-02-13T18:05:57.579Z,1.73
2023-02-13T18:08:24.817Z,1.02
2023-02-13T18:10:51.700Z,0.40
2023-02-13T18:13:18.702Z,0.31
2023-02-13T18:15:45.800Z,-0.03
2023-02-13T18:18:16.166Z,-0.40
2023-02-13T18:20:44.409Z,-0.83
2023-02-13T18:23:11.370Z,-0.84
2023-02-13T18:25:38.314Z,-0.91
2023-02-13T18:28:05.344Z,-0.92
2023-02-13T18:30:32.313Z,-0.92
2023-02-13T18:32:59.466Z,-0.98
2023-02-13T18:35:27.020Z,-0.90
2023-02-13T18:37:54.309Z,-0.67
2023-02-13T18:40:21.596Z,-0.57
2023-02-13T18:42:51.092Z,-0.55
2023-02-13T18:45:18.317Z,-0.51
2023-02-13T18:47:45.461Z,-0.70
2023-02-13T18:50:12.411Z,-0.52
2023-02-13T18:52:39.478Z,-0.66
2023-02-13T18:55:07.401Z,-0.04
2023-02-13T18:57:34.755Z,0.05
2023-02-13T19:00:01.804Z,-0.87
2023-02-13T19:02:28.797Z,-0.96
2023-02-13T19:04:55.697Z,-1.06
2023-02-13T19:07:22.926Z,-0.33
2023-02-13T19:09:50.024Z,-0.04
2023-02-13T19:12:17.307Z,0.03
2023-02-13T19:14:44.365Z,0.22
2023-02-13T19:17:11.419Z,0.37
2023-02-13T19:19:38.417Z,0.25
2023-02-13T19:22:05.320Z,0.24
2023-02-13T19:24:32.540Z,0.11
2023-02-13T19:27:00.580Z,0.10
2023-02-13T19:29:27.603Z,0.12
2023-02-13T19:31:54.925Z,0.12
2023-02-13T19:34:22.143Z,0.17
2023-02-13T19:36:49.096Z,0.08
2023-02-13T19:39:16.185Z,0.00
2023-02-13T19:41:44.310Z,-0.20
2023-02-13T19:44:11.512Z,-0.91
2023-02-13T19:46:38.815Z,-0.90
2023-02-13T19:49:06.814Z,-0.83
2023-02-13T19:51:35.061Z,-0.83
2023-02-13T19:54:07.197Z,-0.58
2023-02-13T19:56:37.161Z,-0.61
2023-02-13T19:59:05.525Z,-1.00
2023-02-13T20:01:32.802Z,-1.21
2023-02-13T20:03:59.813Z,-1.19
2023-02-13T20:06:32.677Z,-0.96
2023-02-13T20:09:01.970Z,-0.60
2023-02-13T20:11:29.667Z,-0.15
2023-02-13T20:14:00.852Z,0.01
2023-02-13T20:16:33.309Z,0.08
2023-02-13T20:19:03.690Z,0.07
2023-02-13T20:21:30.744Z,0.12
2023-02-13T20:23:57.849Z,0.15
2023-02-13T20:26:24.932Z,0.25
2023-02-13T20:28:51.946Z,0.37
2023-02-13T20:31:21.507Z,0.42
2023-02-13T20:33:50.259Z,0.45
2023-02-13T20:36:19.844Z,0.43
2023-02-13T20:38:46.836Z,0.36
2023-02-13T20:41:13.824Z,0.36
2023-02-13T20:43:41.491Z,0.24
2023-02-13T20:46:09.082Z,0.14
2023-02-13T20:48:37.165Z,0.08
2023-02-13T20:51:06.440Z,0.01
2023-02-13T20:53:33.855Z,-0.15
2023-02-13T20:56:06.684Z,-0.11
2023-02-13T20:58:34.460Z,-0.09
2023-02-13T21:01:01.921Z,-0.23
2023-02-13T21:03:29.492Z,-0.24
2023-02-13T21:05:56.440Z,-0.28
2023-02-13T21:08:23.351Z,-0.36
2023-02-13T21:10:50.298Z,-0.32
2023-02-13T21:13:17.466Z,-0.22
2023-02-13T21:15:48.300Z,-0.23
2023-02-13T21:18:15.634Z,-0.25
2023-02-13T21:20:42.571Z,-0.16
2023-02-13T21:23:09.625Z,-0.12
2023-02-13T21:25:36.571Z,-0.03
2023-02-13T21:28:03.582Z,-0.01
2023-02-13T21:30:30.643Z,0.02
2023-02-13T21:32:57.615Z,0.03
2023-02-13T21:35:24.520Z,0.01
2023-02-13T21:37:51.469Z,0.01
2023-02-13T21:40:19.970Z,-0.02
2023-02-13T21:42:46.929Z,-0.12
2023-02-13T21:45:13.876Z,-0.16
2023-02-13T21:47:40.775Z,-0.14
2023-02-13T21:50:08.102Z,-0.12
2023-02-13T21:52:35.584Z,-0.01
2023-02-13T21:55:03.237Z,0.01
2023-02-13T21:57:30.110Z,0.07
2023-02-13T21:59:57.433Z,-0.09
2023-02-13T22:02:27.113Z,-0.19
2023-02-13T22:04:54.133Z,-0.27
2023-02-13T22:07:21.049Z,-0.05
2023-02-13T22:09:50.050Z,0.11
2023-02-13T22:12:16.902Z,0.06
2023-02-13T22:14:43.850Z,0.02
2023-02-13T22:17:10.905Z,0.10
2023-02-13T22:19:38.022Z,0.20
2023-02-13T22:22:04.902Z,0.32
2023-02-13T22:24:32.813Z,0.33
2023-02-13T22:26:59.770Z,0.37
2023-02-13T22:29:27.245Z,0.23
2023-02-13T22:31:54.169Z,0.13
2023-02-13T22:34:21.209Z,0.03
2023-02-13T22:36:48.147Z,-0.15
2023-02-13T22:39:15.113Z,-0.15
2023-02-13T22:41:44.536Z,-0.32
2023-02-13T22:44:11.566Z,-0.57
2023-02-13T22:46:38.713Z,-0.76
2023-02-13T22:49:05.604Z,-0.81
2023-02-13T22:51:35.422Z,-0.94
2023-02-13T22:54:03.133Z,-1.10
2023-02-13T22:56:31.149Z,-1.17
2023-02-13T22:58:59.577Z,-1.23
2023-02-13T23:01:28.067Z,-1.19
2023-02-13T23:03:55.818Z,-1.27
2023-02-13T23:06:23.899Z,-1.39
2023-02-13T23:08:53.486Z,-1.53
2023-02-13T23:11:41.947Z,-1.57
2023-02-13T23:14:10.381Z,-1.65
2023-02-13T23:17:00.259Z,-1.53
2023-02-13T23:19:29.851Z,-1.57
2023-02-13T23:21:57.294Z,-1.69
2023-02-13T23:24:24.321Z,-1.82
2023-02-13T23:26:51.215Z,-1.77
2023-02-13T23:29:18.341Z,-1.64
2023-02-13T23:31:45.337Z,-1.65
2023-02-13T23:34:12.457Z,-1.77
2023-02-13T23:36:39.328Z,-1.70
2023-02-13T23:39:06.334Z,-1.82
2023-02-13T23:41:33.330Z,-1.88
2023-02-13T23:44:00.198Z,-1.89
2023-02-13T23:46:27.549Z,-1.85
2023-02-13T23:48:54.517Z,-1.78
2023-02-13T23:51:23.201Z,-1.49
2023-02-13T23:53:50.131Z,-1.38
2023-02-13T23:56:17.057Z,-1.32
2023-02-13T23:58:43.948Z,-1.27
